Latest Coastal Weather Observations for Cairns

IDQ60701

Issued at 12:22 pm EST Tuesday 30 November 2021 (issued every 10 minutes, with the page automatically refreshed every 10 minutes)

About coastal observations | Map of coastal stations | Coastal observations for QLD | Marine services | Other Formats
Station Details ID: 031011 Name: CAIRNS AERO Lat: -16.87 Lon: 145.75 Height: 2.22 m
Data from the previous 72 hours. | See also: Recent months at Cairns
Date/Time
EST
Wind Sea
Height
m
Swell Vis
km
Cloud Weather Temp
°C
Press
MSL
hPa
Rain since
9am
mm
Dir  Spd
kts
Gust
kts
Height
m
Period
s
Dir
30/12:00pm ENE 10 13 - - - - 10 Partly cloudy - 30.8 1008.7 0.0
30/11:30am NE 10 13 - - - - 10 Partly cloudy - 31.0 1009.0 0.0
30/11:00am E 4 8 - - - - 10 Partly cloudy - 31.4 1009.2 0.0
30/10:30am E 5 9 - - - - 10 Partly cloudy - 30.4 1009.4 0.0
30/10:00am ESE 6 9 - - - - 10 Partly cloudy - 30.2 1009.4 0.0
30/09:30am SSE 7 10 - - - - 10 Partly cloudy - 30.7 1009.6 0.0
30/09:00am SSE 6 11 - - - - 10 - - 29.7 1009.7 13.2
30/08:30am S 6 10 - - - - 10 - - 29.1 1009.5 13.2
30/08:00am S 6 10 - - - - 10 - - 28.7 1009.4 13.2
30/07:30am S 5 8 - - - - 10 Partly cloudy - 27.8 1009.3 13.0
30/07:00am ESE 7 9 - - - - 10 Partly cloudy - 26.2 1009.3 13.0
30/06:30am SE 7 11 - - - - 10 Partly cloudy - 25.5 1008.9 13.0
30/06:00am SE 10 12 - - - - 10 Cloudy - 24.7 1008.8 13.0
30/05:50am SE 6 11 - - - - 10 Partly cloudy - 24.9 1008.8 13.0
30/05:37am ESE 3 8 - - - - 10 Partly cloudy - 24.8 1009.0 13.0
30/05:30am E 1 2 - - - - 10 Partly cloudy - 24.8 1009.0 13.0
30/05:00am WSW 1 3 - - - - 10 Partly cloudy - 24.8 1008.9 13.0
30/04:30am SE 7 9 - - - - 10 Partly cloudy - 24.6 1008.6 13.0
30/04:00am ESE 1 4 - - - - 10 Partly cloudy - 25.1 1008.3 13.0
30/03:30am SE 7 9 - - - - 10 Partly cloudy - 24.7 1008.6 13.0
30/03:00am SE 9 13 - - - - 10 Cloudy Showers 24.5 1008.5 13.0
30/02:30am NNW 1 2 - - - - 10 Partly cloudy - 24.6 1008.7 12.8
30/02:00am CALM 0 0 - - - - 10 Partly cloudy - 24.6 1009.1 12.4
30/01:30am SE 2 4 - - - - 10 Partly cloudy - 24.6 1009.4 12.2
30/01:00am NNW 2 4 - - - - 10 Partly cloudy - 24.5 1009.7 12.0
30/12:30am NNE 2 3 - - - - 10 Partly cloudy - 24.7 1010.0 11.8
30/12:00am ESE 6 8 - - - - 10 Cloudy Rain 24.3 1010.3 11.8
 
Date/Time
EST
Wind Sea
Height
m
Swell Vis
km
Cloud Weather Temp
°C
Press
MSL
hPa
Rain since
9am
mm
Dir  Spd
kts
Gust
kts
Height
m
Period
s
Dir
29/11:30pm WNW 3 7 - - - - 10 - - 24.3 1010.5 11.0
29/11:00pm WNW 6 8 - - - - 9 Partly cloudy - 24.2 1010.8 10.6
29/10:59pm WNW 5 8 - - - - 9 Partly cloudy - 24.2 1010.8 10.6
29/10:30pm NW 1 3 - - - - 6 Partly cloudy - 24.5 1011.1 7.4
29/10:00pm WNW 5 9 - - - - 10 Partly cloudy - 24.5 1011.1 6.0
29/09:32pm SSE 6 10 - - - - 10 Partly cloudy - 24.7 1010.7 6.0
29/09:30pm SSE 6 9 - - - - 10 Partly cloudy - 24.5 1010.7 6.0
29/09:00pm SE 10 12 - - - - 2 Cloudy Rain 24.6 1010.5 5.4
29/08:48pm ESE 7 10 - - - - 6 Partly cloudy - 25.4 1010.5 1.4
29/08:30pm S 8 12 - - - - 10 Partly cloudy - 26.7 1009.8 0.2
29/08:00pm S 5 8 - - - - 10 Partly cloudy - 26.6 1009.6 0.2
29/07:30pm SE 9 12 - - - - 10 Partly cloudy - 27.6 1009.5 0.2
29/07:00pm SSE 6 10 - - - - 10 - - 27.6 1008.8 0.2
29/06:30pm SE 10 12 - - - - 10 - - 28.2 1008.3 0.2
29/06:00pm ESE 9 12 - - - - 10 Mostly clear - 28.9 1008.2 0.2
29/05:30pm E 10 14 - - - - 10 - - 29.8 1007.8 0.2
29/05:00pm E 8 11 - - - - 10 Partly cloudy - 29.5 1007.7 0.2
29/04:30pm E 8 11 - - - - 10 Partly cloudy - 29.8 1007.8 0.2
29/04:00pm ESE 7 12 - - - - 10 - - 30.5 1007.7 0.2
29/03:30pm ENE 8 11 - - - - 10 Partly cloudy - 31.5 1007.7 0.2
29/03:00pm ENE 7 10 - - - - 10 Mostly cloudy - 31.2 1008.0 0.2
29/02:30pm NE 8 11 - - - - 10 Partly cloudy - 31.3 1008.3 0.2
29/02:00pm ENE 9 12 - - - - 10 - - 32.1 1008.4 0.2
29/01:30pm ENE 9 14 - - - - 10 - - 31.5 1008.6 0.2
29/01:00pm ENE 8 12 - - - - 10 Partly cloudy - 31.6 1008.9 0.2
29/12:30pm E 7 11 - - - - 10 Partly cloudy - 31.1 1009.4 0.2
29/12:00pm ESE 8 13 - - - - 10 Cloudy - 30.8 1009.9 0.2
29/11:30am SE 10 13 - - - - 10 Partly cloudy - 29.8 1010.3 0.2
29/11:00am SSE 9 12 - - - - 10 Partly cloudy - 29.5 1010.6 0.2
29/10:30am SSE 9 11 - - - - 10 Partly cloudy - 28.7 1010.9 0.2
29/10:00am SSE 8 12 - - - - 10 Partly cloudy - 28.6 1011.1 0.0
29/09:30am S 9 14 - - - - 10 Partly cloudy - 27.4 1011.4 0.0
29/09:00am SSE 11 14 - - - - 10 Mostly cloudy Rain 26.7 1011.5 14.2
29/08:30am S 7 13 - - - - 8 Partly cloudy - 25.1 1011.3 14.2
29/08:00am SSE 7 10 - - - - 10 Partly cloudy - 25.5 1010.9 14.0
29/07:30am SE 8 11 - - - - 10 Partly cloudy - 25.1 1010.7 13.6
29/07:00am SE 5 7 - - - - 10 Partly cloudy - 25.2 1010.4 13.6
29/06:30am SE 4 8 - - - - 10 Partly cloudy - 25.1 1010.0 13.6
29/06:00am CALM 0 1 - - - - 10 Cloudy Rain 24.8 1009.6 13.4
29/05:30am SSE 5 8 - - - - 10 Partly cloudy - 24.8 1009.4 13.4
29/05:00am SSE 6 10 - - - - 10 Partly cloudy - 24.5 1008.9 13.4
29/04:30am S 2 6 - - - - 10 Partly cloudy - 24.5 1008.4 13.4
29/04:00am SE 1 3 - - - - 10 Partly cloudy - 24.3 1008.2 13.4
29/03:30am SE 7 10 - - - - 10 Partly cloudy - 24.2 1008.5 13.4
29/03:00am CALM 0 0 - - - - 10 Cloudy Rain 24.3 1008.8 13.2
29/02:30am SSE 3 3 - - - - 10 Partly cloudy - 24.3 1008.8 13.2
29/02:00am CALM 0 0 - - - - 10 Partly cloudy - 24.7 1009.1 13.2
29/01:30am SSW 1 3 - - - - 10 Partly cloudy - 24.3 1009.7 13.0
29/01:00am SE 8 9 - - - - 10 Partly cloudy - 24.6 1009.8 12.4
29/12:30am SE 8 9 - - - - 10 - - 24.7 1010.2 12.4
29/12:00am SW 1 3 - - - - 10 Partly cloudy Rain 24.9 1010.4 12.4
 
Date/Time
EST
Wind Sea
Height
m
Swell Vis
km
Cloud Weather Temp
°C
Press
MSL
hPa
Rain since
9am
mm
Dir  Spd
kts
Gust
kts
Height
m
Period
s
Dir
28/11:53pm S 1 3 - - - - 10 Partly cloudy - 24.9 1010.6 12.4
28/11:30pm CALM 0 0 - - - - 10 Partly cloudy - 25.0 1010.8 12.4
28/11:18pm CALM 0 0 - - - - 10 Partly cloudy - 25.0 1011.0 12.4
28/11:00pm S 3 4 - - - - 10 Partly cloudy - 24.8 1011.0 12.2
28/10:30pm WNW 3 4 - - - - 10 Partly cloudy - 24.9 1011.2 11.6
28/10:14pm W 2 4 - - - - 10 Partly cloudy - 24.8 1011.3 11.4
28/10:03pm CALM 0 2 - - - - 10 Partly cloudy - 24.8 1011.3 11.4
28/10:00pm CALM 0 0 - - - - 10 Partly cloudy - 24.8 1011.3 11.4
28/09:51pm WSW 1 2 - - - - 8 Partly cloudy - 24.8 1011.0 11.2
28/09:30pm NW 2 3 - - - - 3 Partly cloudy - 25.0 1010.7 8.6
28/09:27pm NNW 1 3 - - - - 6 Partly cloudy - 24.9 1010.7 7.2
28/09:25pm NW 1 3 - - - - 10 Partly cloudy - 25.0 1010.7 6.6
28/09:03pm SW 2 5 - - - - 10 Partly cloudy - 24.9 1010.3 5.4
28/09:00pm WSW 3 5 - - - - 10 Cloudy Rain 24.9 1010.4 5.2
28/08:51pm W 3 3 - - - - 6 Partly cloudy - 24.8 1010.3 5.0
28/08:48pm W 3 5 - - - - 6 Partly cloudy - 24.9 1010.3 4.6
28/08:37pm NNW 3 5 - - - - 10 Partly cloudy - 24.9 1010.4 3.6
28/08:32pm NNW 4 5 - - - - 10 Partly cloudy - 25.1 1010.4 3.4
28/08:30pm NNW 4 5 - - - - 10 Partly cloudy - 25.0 1010.5 3.4
28/08:16pm NNW 6 11 - - - - 10 Partly cloudy - 25.2 1010.2 3.0
28/08:00pm SSE 3 4 - - - - 10 Partly cloudy - 25.9 1009.9 2.8
28/07:30pm S 9 14 - - - - 10 Partly cloudy - 25.6 1009.8 2.6
28/07:09pm S 9 14 - - - - 10 Partly cloudy - 25.1 1009.9 2.6
28/07:00pm S 9 13 - - - - 8 Partly cloudy - 25.0 1009.7 2.6
28/06:48pm SE 12 15 - - - - 6 Partly cloudy - 25.4 1009.7 1.2
28/06:30pm SSE 8 13 - - - - 10 - - 27.2 1009.3 0.0
28/06:00pm SSE 8 10 - - - - 10 Cloudy - 27.7 1009.2 0.0
28/05:30pm SSE 5 8 - - - - 10 Partly cloudy - 28.2 1008.6 0.0
28/05:00pm SSE 5 9 - - - - 10 Partly cloudy - 28.1 1008.3 0.0
28/04:30pm ESE 7 9 - - - - 10 Cloudy - 29.2 1008.2 0.0
28/04:00pm ESE 6 11 - - - - 10 Partly cloudy - 29.7 1008.1 0.0
28/03:30pm E 10 14 - - - - 10 Partly cloudy - 30.2 1007.8 0.0
28/03:00pm NNE 6 10 - - - - 10 - - 30.1 1008.0 0.0
28/02:30pm NNE 8 11 - - - - 10 Partly cloudy - 30.5 1008.2 0.0
28/02:00pm ENE 7 10 - - - - 10 Partly cloudy - 30.4 1008.5 0.0
28/01:30pm NE 7 12 - - - - 10 Partly cloudy - 30.0 1008.9 0.0
28/01:00pm NE 6 9 - - - - 10 Cloudy - 31.2 1009.1 0.0
28/12:30pm NE 6 10 - - - - 10 Partly cloudy - 30.2 1009.6 0.0
28/12:00pm NE 7 10 - - - - 10 Mostly clear - 30.9 1009.6 0.0
28/11:30am NE 8 10 - - - - 10 Partly cloudy - 30.8 1009.9 0.0
28/11:00am NE 9 11 - - - - 10 Partly cloudy - 29.5 1010.1 0.0
28/10:30am NE 5 10 - - - - 10 Partly cloudy - 30.6 1010.2 0.0
28/10:00am NE 5 7 - - - - 10 Partly cloudy - 29.7 1010.4 0.0
28/09:30am ENE 4 7 - - - - 10 Partly cloudy - 30.7 1010.5 0.0
28/09:02am NE 3 8 - - - - 10 Partly cloudy - 30.0 1010.4 0.0
28/09:00am NE 3 8 - - - - 10 Partly cloudy Recent precip. 30.1 1010.4 28.8
28/08:39am E 1 3 - - - - 10 Partly cloudy - 29.3 1010.4 28.6
28/08:30am SW 1 3 - - - - 10 Partly cloudy - 29.4 1010.4 28.6
28/08:00am SSE 1 2 - - - - 10 - - 27.9 1010.3 28.6
28/07:30am SE 5 7 - - - - 10 - - 26.8 1010.1 28.6
28/07:00am CALM 0 0 - - - - 10 - - 26.1 1009.7 28.6
28/06:30am W 2 3 - - - - 10 - - 25.1 1009.5 28.6
28/06:00am SW 1 6 - - - - 10 Mostly clear - 24.6 1008.9 28.6
28/05:30am SSE 7 9 - - - - 10 Partly cloudy - 24.5 1008.6 28.6
28/05:00am CALM 0 0 - - - - 10 Partly cloudy - 23.9 1008.3 28.6
28/04:30am WNW 1 2 - - - - 10 - - 24.0 1008.0 28.6
28/04:00am CALM 0 0 - - - - 10 - - 24.0 1007.8 28.6
28/03:30am CALM 0 0 - - - - 10 - - 24.2 1007.7 28.6
28/03:00am W 2 3 - - - - 10 Cloudy - 24.2 1008.0 28.6
28/02:30am CALM 0 0 - - - - 10 - - 24.3 1008.2 28.6
28/02:00am CALM 0 0 - - - - 10 - - 24.3 1008.2 28.6
28/01:30am CALM 0 0 - - - - 10 - - 24.5 1008.3 28.6
28/01:00am CALM 0 0 - - - - 10 - - 24.7 1009.0 28.6
28/12:30am SW 1 2 - - - - 10 Partly cloudy - 24.7 1009.4 28.6
28/12:19am S 1 2 - - - - 10 Partly cloudy - 24.7 1009.4 28.6
28/12:04am SSE 2 3 - - - - 10 Partly cloudy - 24.6 1009.5 28.4
28/12:00am SE 2 3 - - - - 10 Cloudy Rain 24.6 1009.6 28.4
 
Date/Time
EST
Wind Sea
Height
m
Swell Vis
km
Cloud Weather Temp
°C
Press
MSL
hPa
Rain since
9am
mm
Dir  Spd
kts
Gust
kts
Height
m
Period
s
Dir
27/11:35pm WSW 3 5 - - - - 10 Partly cloudy - 24.3 1009.8 28.4
27/11:30pm WSW 4 6 - - - - 10 Partly cloudy - 24.3 1009.7 28.2
27/11:24pm WSW 5 9 - - - - 5 Partly cloudy - 24.3 1009.8 28.2
27/11:00pm WSW 6 11 - - - - 0.9 Partly cloudy - 24.9 1010.3 18.0
27/10:47pm SSW 1 3 - - - - 4 Partly cloudy - 26.0 1010.6 5.2
27/10:30pm ESE 2 4 - - - - 10 Partly cloudy - 26.3 1010.5 0.6
27/10:00pm SW 1 2 - - - - 10 Partly cloudy - 26.3 1010.6 0.6
27/09:43pm CALM 0 0 - - - - 10 Partly cloudy - 26.5 1010.4 0.6
27/09:30pm CALM 0 0 - - - - 10 Partly cloudy - 26.4 1010.3 0.4
27/09:23pm CALM 0 0 - - - - 10 Partly cloudy - 26.6 1010.2 0.4
27/09:00pm N 2 3 - - - - 10 Cloudy Showers 27.3 1010.0 0.0
27/08:34pm ESE 3 4 - - - - 10 Partly cloudy - 27.4 1009.6 0.0
27/08:33pm SE 3 4 - - - - 10 Partly cloudy - 27.3 1009.6 0.0
27/08:30pm SE 3 4 - - - - 10 Partly cloudy - 27.2 1009.6 0.0
27/08:22pm SE 3 4 - - - - 10 Partly cloudy - 27.4 1009.6 0.0
27/08:00pm ESE 5 8 - - - - 10 Partly cloudy - 27.7 1009.5 0.0
27/07:31pm E 7 9 - - - - 10 Partly cloudy - 27.8 1009.1 0.0
27/07:30pm E 7 9 - - - - 10 Partly cloudy - 27.8 1009.1 0.0
27/07:00pm E 8 11 - - - - 10 Partly cloudy - 28.0 1008.9 0.0
27/06:57pm E 8 11 - - - - 10 Partly cloudy - 28.0 1008.8 0.0
27/06:30pm ENE 9 12 - - - - 10 Partly cloudy - 28.1 1008.3 0.0
27/06:00pm ENE 8 11 - - - - 10 - - 28.5 1008.0 0.0
27/05:30pm ENE 9 12 - - - - 10 - - 29.2 1007.7 0.0
27/05:00pm ENE 10 13 - - - - 10 - - 29.6 1007.2 0.0
27/04:30pm ENE 10 13 - - - - 10 - - 30.2 1007.0 0.0
27/04:00pm NE 8 12 - - - - 10 - - 30.4 1006.9 0.0
27/03:30pm ENE 9 12 - - - - 10 - - 30.2 1006.9 0.0
27/03:00pm NE 8 11 - - - - 10 - - 30.7 1006.9 0.0
27/02:30pm NE 8 10 - - - - 10 - - 31.6 1007.0 0.0
27/02:00pm NE 8 11 - - - - 10 - - 31.2 1007.5 0.0
27/01:30pm NE 6 10 - - - - 10 - - 30.7 1007.6 0.0
27/01:00pm NNE 7 10 - - - - 10 - - 30.9 1008.0 0.0
27/12:30pm NNE 7 9 - - - - 10 - - 31.5 1008.2 0.0

Other formats

Comma delimited format used in spreadsheet applications
http://www.bom.gov.au/fwo/IDQ60701/IDQ60701.94287.axf

JavaScript Object Notation format (JSON) in row-major order
http://www.bom.gov.au/fwo/IDQ60701/IDQ60701.94287.json

Data quality

Most of these data are generated automatically and are frequently updated. Quality checks on data are not normally performed. It is possible for incorrect values to appear. Refer to information at About Latest Weather Observations and please check the disclaimer before using these data.